Henderson, Nevada
Current Conditions -  °F | °C
As of 6:15 AM on Thursday 29 Jan 2015 (Local Time) from KBVU Reporting Station
Clear Clear  
Wind Chill: 13°   Ceiling: Unl
Heat Index: 13°   Visibility: 9mi
Dew Point:   Wind: 9mph
Humidity: 58%   Direction: 340°NNW
Pressure: 30.17"   Gusts: NA
Location:  36.03°N, 114.98°W
Report Text: KBVU 291415Z AUTO 34008KT 9SM CLR 13/05 A3017 RMK AO2
Loading
Personal Weather Stations






























Interactive Weather Map New forecast layout! Learn more

10-Day Weather Forecast

Advertisements
Track Severe Weather on mobile